createdAt,value
2018-09-11T00:05:52.292Z,99005.92
2018-09-11T00:26:34.633Z,98993.29
2018-09-11T00:47:13.901Z,99014.93
2018-09-11T01:07:55.017Z,98998.38
2018-09-11T01:28:35.507Z,99016.03
2018-09-11T01:49:18.762Z,99049.27
2018-09-11T02:10:03.870Z,99064.94
2018-09-11T02:30:44.612Z,99054.55
2018-09-11T02:51:24.562Z,99057.42
2018-09-11T03:12:05.964Z,99068.16
2018-09-11T03:32:45.232Z,99072.11
2018-09-11T03:53:24.497Z,99056.20
2018-09-11T04:14:04.689Z,99064.77
2018-09-11T04:34:43.031Z,99066.58
2018-09-11T04:55:27.515Z,99082.82
2018-09-11T05:16:11.699Z,99093.95
2018-09-11T05:36:52.810Z,99102.56
2018-09-11T05:57:36.373Z,99118.78
2018-09-11T06:18:21.170Z,99102.14
2018-09-11T06:38:58.899Z,99111.64
2018-09-11T06:59:40.010Z,99099.30
2018-09-11T07:20:22.969Z,99090.12
2018-09-11T07:40:58.544Z,99101.76
2018-09-11T08:01:43.236Z,99104.98
2018-09-11T08:22:26.291Z,99105.62
2018-09-11T08:43:04.909Z,99104.40
2018-09-11T09:03:44.824Z,99106.30
2018-09-11T09:24:25.011Z,99097.22
2018-09-11T09:45:03.353Z,99084.82
2018-09-11T10:05:42.620Z,99064.20
2018-09-11T10:26:21.884Z,99054.60
2018-09-11T11:05:07.736Z,99003.84
2018-09-11T11:25:49.481Z,98986.48
2018-09-11T11:46:35.824Z,98984.80
2018-09-11T12:07:12.258Z,98991.44
2018-09-11T12:27:54.028Z,98981.48
2018-09-11T12:48:36.472Z,98959.58
2018-09-11T13:09:15.685Z,98935.28
2018-09-11T13:29:59.245Z,98925.70
2018-09-11T13:50:40.609Z,98917.30
2018-09-11T14:11:19.561Z,98902.12
2018-09-11T14:32:00.980Z,98894.37
2018-09-11T14:52:45.227Z,98887.98
2018-09-11T15:13:24.427Z,98868.92
2018-09-11T15:34:12.250Z,98854.14
2018-09-11T15:54:54.944Z,98843.37
2018-09-11T16:15:37.745Z,98818.98
2018-09-11T16:36:22.691Z,98815.55
2018-09-11T16:57:08.105Z,98820.75
2018-09-11T17:17:48.293Z,98818.11
2018-09-11T17:38:27.557Z,98815.47
2018-09-11T17:59:07.747Z,98825.21
2018-09-11T18:19:48.238Z,98861.02
2018-09-11T18:40:31.496Z,98863.70
2018-09-11T19:01:08.618Z,98880.71
2018-09-11T19:21:49.110Z,98897.64
2018-09-11T19:42:27.197Z,98906.42
2018-09-11T20:03:08.565Z,98923.16
2018-09-11T20:23:46.601Z,98925.06
2018-09-11T20:44:27.097Z,98929.91
2018-09-11T21:05:09.434Z,98942.81
2018-09-11T21:25:59.757Z,98936.41
2018-09-11T21:46:39.027Z,98943.58
2018-09-11T22:07:22.602Z,98922.95
2018-09-11T22:28:11.689Z,98925.27
2018-09-11T22:48:50.959Z,98919.57
2018-09-11T23:09:33.296Z,98916.19
2018-09-11T23:30:15.329Z,98909.11
2018-09-11T23:50:54.902Z,98890.42
